sensor_id;sensor_type;location;lat;lon;timestamp;P1;durP1;ratioP1;P2;durP2;ratioP2
54875;SDS011;40764;48.472;8.166;2023-06-26T00:00:31;15.45;;;8.57;;
54875;SDS011;40764;48.472;8.166;2023-06-26T00:06:32;14.60;;;8.30;;
54875;SDS011;40764;48.472;8.166;2023-06-26T00:12:33;15.48;;;8.43;;
54875;SDS011;40764;48.472;8.166;2023-06-26T00:18:33;14.85;;;9.05;;
54875;SDS011;40764;48.472;8.166;2023-06-26T00:24:33;13.50;;;8.35;;
54875;SDS011;40764;48.472;8.166;2023-06-26T00:30:34;18.25;;;8.75;;
54875;SDS011;40764;48.472;8.166;2023-06-26T00:36:34;14.10;;;8.68;;
54875;SDS011;40764;48.472;8.166;2023-06-26T00:42:34;17.80;;;9.17;;
54875;SDS011;40764;48.472;8.166;2023-06-26T00:48:35;18.05;;;9.00;;
54875;SDS011;40764;48.472;8.166;2023-06-26T00:54:35;15.77;;;7.90;;
54875;SDS011;40764;48.472;8.166;2023-06-26T01:00:36;13.23;;;8.33;;
54875;SDS011;40764;48.472;8.166;2023-06-26T01:06:36;19.80;;;10.00;;
54875;SDS011;40764;48.472;8.166;2023-06-26T01:12:37;15.27;;;8.87;;
54875;SDS011;40764;48.472;8.166;2023-06-26T01:18:39;14.40;;;8.60;;
54875;SDS011;40764;48.472;8.166;2023-06-26T01:24:45;18.52;;;7.93;;
54875;SDS011;40764;48.472;8.166;2023-06-26T01:30:57;16.35;;;8.35;;
54875;SDS011;40764;48.472;8.166;2023-06-26T01:36:59;16.55;;;9.35;;
54875;SDS011;40764;48.472;8.166;2023-06-26T01:42:59;14.93;;;8.88;;
54875;SDS011;40764;48.472;8.166;2023-06-26T01:49:12;14.87;;;8.40;;
54875;SDS011;40764;48.472;8.166;2023-06-26T01:55:23;12.77;;;7.97;;
54875;SDS011;40764;48.472;8.166;2023-06-26T02:01:42;16.17;;;7.60;;
54875;SDS011;40764;48.472;8.166;2023-06-26T02:07:43;16.80;;;8.67;;
54875;SDS011;40764;48.472;8.166;2023-06-26T02:13:46;13.70;;;7.50;;
54875;SDS011;40764;48.472;8.166;2023-06-26T02:19:47;14.40;;;8.45;;
54875;SDS011;40764;48.472;8.166;2023-06-26T02:25:47;16.17;;;9.70;;
54875;SDS011;40764;48.472;8.166;2023-06-26T02:31:47;13.02;;;7.43;;
54875;SDS011;40764;48.472;8.166;2023-06-26T02:37:49;15.40;;;8.07;;
54875;SDS011;40764;48.472;8.166;2023-06-26T02:43:49;16.87;;;9.43;;
54875;SDS011;40764;48.472;8.166;2023-06-26T02:49:49;16.55;;;8.68;;
54875;SDS011;40764;48.472;8.166;2023-06-26T02:55:50;16.63;;;8.90;;
54875;SDS011;40764;48.472;8.166;2023-06-26T03:01:50;14.93;;;8.53;;
54875;SDS011;40764;48.472;8.166;2023-06-26T03:07:50;15.85;;;8.40;;
54875;SDS011;40764;48.472;8.166;2023-06-26T03:13:51;15.40;;;8.88;;
54875;SDS011;40764;48.472;8.166;2023-06-26T03:19:51;16.73;;;9.45;;
54875;SDS011;40764;48.472;8.166;2023-06-26T03:25:51;11.73;;;7.90;;
54875;SDS011;40764;48.472;8.166;2023-06-26T03:31:52;13.10;;;8.38;;
54875;SDS011;40764;48.472;8.166;2023-06-26T03:37:52;17.00;;;8.10;;
54875;SDS011;40764;48.472;8.166;2023-06-26T03:43:52;15.13;;;8.50;;
54875;SDS011;40764;48.472;8.166;2023-06-26T03:49:53;17.65;;;8.80;;
54875;SDS011;40764;48.472;8.166;2023-06-26T03:55:53;12.50;;;7.80;;
54875;SDS011;40764;48.472;8.166;2023-06-26T04:01:53;15.53;;;8.50;;
54875;SDS011;40764;48.472;8.166;2023-06-26T04:07:54;18.42;;;8.93;;
54875;SDS011;40764;48.472;8.166;2023-06-26T04:13:54;14.18;;;8.77;;
54875;SDS011;40764;48.472;8.166;2023-06-26T04:19:54;15.37;;;9.40;;
54875;SDS011;40764;48.472;8.166;2023-06-26T04:25:55;13.10;;;8.70;;
54875;SDS011;40764;48.472;8.166;2023-06-26T04:31:55;13.87;;;8.67;;
54875;SDS011;40764;48.472;8.166;2023-06-26T04:37:58;21.08;;;10.52;;
54875;SDS011;40764;48.472;8.166;2023-06-26T04:43:59;27.70;;;13.07;;
54875;SDS011;40764;48.472;8.166;2023-06-26T04:49:59;19.13;;;10.73;;
54875;SDS011;40764;48.472;8.166;2023-06-26T04:55:59;30.15;;;13.00;;
54875;SDS011;40764;48.472;8.166;2023-06-26T05:02:00;28.90;;;15.47;;
54875;SDS011;40764;48.472;8.166;2023-06-26T05:08:06;37.08;;;18.63;;
54875;SDS011;40764;48.472;8.166;2023-06-26T05:14:17;35.33;;;16.05;;
54875;SDS011;40764;48.472;8.166;2023-06-26T05:20:17;25.27;;;13.20;;
54875;SDS011;40764;48.472;8.166;2023-06-26T05:26:17;25.77;;;12.55;;
54875;SDS011;40764;48.472;8.166;2023-06-26T05:32:18;17.83;;;10.43;;
54875;SDS011;40764;48.472;8.166;2023-06-26T05:38:19;17.03;;;9.77;;
54875;SDS011;40764;48.472;8.166;2023-06-26T05:44:20;17.10;;;10.07;;
54875;SDS011;40764;48.472;8.166;2023-06-26T05:50:21;14.23;;;8.07;;
54875;SDS011;40764;48.472;8.166;2023-06-26T05:56:21;18.47;;;9.30;;
54875;SDS011;40764;48.472;8.166;2023-06-26T06:02:22;16.97;;;9.63;;
54875;SDS011;40764;48.472;8.166;2023-06-26T06:08:22;14.20;;;8.20;;
54875;SDS011;40764;48.472;8.166;2023-06-26T06:14:23;16.92;;;9.68;;
54875;SDS011;40764;48.472;8.166;2023-06-26T06:20:24;20.45;;;9.63;;
54875;SDS011;40764;48.472;8.166;2023-06-26T06:26:25;17.45;;;7.90;;
54875;SDS011;40764;48.472;8.166;2023-06-26T06:32:25;19.25;;;8.30;;
54875;SDS011;40764;48.472;8.166;2023-06-26T06:38:25;12.55;;;8.05;;
54875;SDS011;40764;48.472;8.166;2023-06-26T06:44:26;11.90;;;8.13;;
54875;SDS011;40764;48.472;8.166;2023-06-26T06:50:26;14.07;;;8.80;;
54875;SDS011;40764;48.472;8.166;2023-06-26T06:56:26;14.60;;;8.40;;
54875;SDS011;40764;48.472;8.166;2023-06-26T07:02:27;23.30;;;7.63;;
54875;SDS011;40764;48.472;8.166;2023-06-26T07:08:27;11.52;;;7.55;;
54875;SDS011;40764;48.472;8.166;2023-06-26T07:14:27;17.60;;;9.27;;
54875;SDS011;40764;48.472;8.166;2023-06-26T07:20:28;10.40;;;6.60;;
54875;SDS011;40764;48.472;8.166;2023-06-26T07:26:28;12.60;;;6.77;;
54875;SDS011;40764;48.472;8.166;2023-06-26T07:32:28;15.70;;;6.60;;
54875;SDS011;40764;48.472;8.166;2023-06-26T07:38:29;10.30;;;6.93;;
54875;SDS011;40764;48.472;8.166;2023-06-26T07:44:29;9.10;;;6.60;;
54875;SDS011;40764;48.472;8.166;2023-06-26T07:50:30;10.50;;;6.53;;
54875;SDS011;40764;48.472;8.166;2023-06-26T07:56:30;13.02;;;6.88;;
54875;SDS011;40764;48.472;8.166;2023-06-26T08:02:30;23.10;;;7.23;;
54875;SDS011;40764;48.472;8.166;2023-06-26T08:08:31;10.25;;;5.78;;
54875;SDS011;40764;48.472;8.166;2023-06-26T08:14:31;8.73;;;5.97;;
54875;SDS011;40764;48.472;8.166;2023-06-26T08:20:31;8.35;;;5.78;;
54875;SDS011;40764;48.472;8.166;2023-06-26T08:26:32;7.95;;;5.80;;
54875;SDS011;40764;48.472;8.166;2023-06-26T08:32:32;9.87;;;6.37;;
54875;SDS011;40764;48.472;8.166;2023-06-26T08:38:32;9.40;;;6.18;;
54875;SDS011;40764;48.472;8.166;2023-06-26T08:44:33;10.40;;;6.23;;
54875;SDS011;40764;48.472;8.166;2023-06-26T08:50:34;9.60;;;7.07;;
54875;SDS011;40764;48.472;8.166;2023-06-26T08:56:36;10.73;;;6.57;;
54875;SDS011;40764;48.472;8.166;2023-06-26T09:02:40;13.05;;;6.78;;
54875;SDS011;40764;48.472;8.166;2023-06-26T09:08:40;12.83;;;7.20;;
54875;SDS011;40764;48.472;8.166;2023-06-26T09:14:41;11.50;;;7.63;;
54875;SDS011;40764;48.472;8.166;2023-06-26T09:20:42;11.65;;;7.68;;
54875;SDS011;40764;48.472;8.166;2023-06-26T09:26:42;13.23;;;8.02;;
54875;SDS011;40764;48.472;8.166;2023-06-26T09:32:43;15.02;;;8.93;;
54875;SDS011;40764;48.472;8.166;2023-06-26T09:38:44;11.45;;;7.88;;
54875;SDS011;40764;48.472;8.166;2023-06-26T09:44:44;16.02;;;8.50;;
54875;SDS011;40764;48.472;8.166;2023-06-26T09:56:46;16.58;;;8.43;;
54875;SDS011;40764;48.472;8.166;2023-06-26T10:02:46;12.60;;;7.80;;
54875;SDS011;40764;48.472;8.166;2023-06-26T10:08:46;13.43;;;7.43;;
54875;SDS011;40764;48.472;8.166;2023-06-26T10:14:48;11.82;;;7.28;;
54875;SDS011;40764;48.472;8.166;2023-06-26T10:20:48;11.60;;;7.27;;
54875;SDS011;40764;48.472;8.166;2023-06-26T10:26:57;11.38;;;6.85;;
54875;SDS011;40764;48.472;8.166;2023-06-26T10:33:02;17.40;;;8.20;;
54875;SDS011;40764;48.472;8.166;2023-06-26T10:39:04;27.70;;;8.52;;
54875;SDS011;40764;48.472;8.166;2023-06-26T10:45:10;15.43;;;5.50;;
54875;SDS011;40764;48.472;8.166;2023-06-26T10:51:15;14.35;;;6.38;;
54875;SDS011;40764;48.472;8.166;2023-06-26T10:57:22;13.43;;;5.93;;
54875;SDS011;40764;48.472;8.166;2023-06-26T11:03:23;9.75;;;5.40;;
54875;SDS011;40764;48.472;8.166;2023-06-26T11:09:24;7.28;;;5.95;;
54875;SDS011;40764;48.472;8.166;2023-06-26T11:15:26;11.43;;;5.87;;
54875;SDS011;40764;48.472;8.166;2023-06-26T11:21:27;15.63;;;6.35;;
54875;SDS011;40764;48.472;8.166;2023-06-26T11:33:37;8.73;;;5.70;;
54875;SDS011;40764;48.472;8.166;2023-06-26T11:39:37;9.55;;;5.10;;
54875;SDS011;40764;48.472;8.166;2023-06-26T11:45:37;10.82;;;5.68;;
54875;SDS011;40764;48.472;8.166;2023-06-26T11:51:40;7.70;;;4.80;;
54875;SDS011;40764;48.472;8.166;2023-06-26T11:57:40;7.65;;;4.82;;
54875;SDS011;40764;48.472;8.166;2023-06-26T12:03:42;6.93;;;4.70;;
54875;SDS011;40764;48.472;8.166;2023-06-26T12:09:43;8.27;;;4.90;;
54875;SDS011;40764;48.472;8.166;2023-06-26T12:15:45;8.27;;;4.97;;
54875;SDS011;40764;48.472;8.166;2023-06-26T12:21:46;7.28;;;4.60;;
54875;SDS011;40764;48.472;8.166;2023-06-26T12:27:48;7.53;;;4.75;;
54875;SDS011;40764;48.472;8.166;2023-06-26T12:33:50;6.95;;;4.13;;
54875;SDS011;40764;48.472;8.166;2023-06-26T12:39:56;9.75;;;4.57;;
54875;SDS011;40764;48.472;8.166;2023-06-26T12:45:57;7.40;;;3.75;;
54875;SDS011;40764;48.472;8.166;2023-06-26T12:51:58;5.93;;;4.03;;
54875;SDS011;40764;48.472;8.166;2023-06-26T12:57:59;5.97;;;4.05;;
54875;SDS011;40764;48.472;8.166;2023-06-26T13:10:00;8.90;;;4.25;;
54875;SDS011;40764;48.472;8.166;2023-06-26T13:16:00;10.55;;;4.50;;
54875;SDS011;40764;48.472;8.166;2023-06-26T13:22:02;6.53;;;4.47;;
54875;SDS011;40764;48.472;8.166;2023-06-26T13:34:03;8.85;;;4.07;;
54875;SDS011;40764;48.472;8.166;2023-06-26T13:40:06;6.57;;;4.22;;
54875;SDS011;40764;48.472;8.166;2023-06-26T13:46:07;6.25;;;3.65;;
54875;SDS011;40764;48.472;8.166;2023-06-26T13:52:07;6.65;;;4.05;;
54875;SDS011;40764;48.472;8.166;2023-06-26T13:58:07;5.90;;;4.28;;
54875;SDS011;40764;48.472;8.166;2023-06-26T14:04:08;5.97;;;3.97;;
54875;SDS011;40764;48.472;8.166;2023-06-26T14:10:08;7.30;;;4.18;;
54875;SDS011;40764;48.472;8.166;2023-06-26T14:16:09;6.65;;;3.65;;
54875;SDS011;40764;48.472;8.166;2023-06-26T14:22:09;9.27;;;3.63;;
54875;SDS011;40764;48.472;8.166;2023-06-26T14:28:10;11.43;;;4.67;;
54875;SDS011;40764;48.472;8.166;2023-06-26T14:34:10;9.73;;;4.60;;
54875;SDS011;40764;48.472;8.166;2023-06-26T14:40:10;7.30;;;4.50;;
54875;SDS011;40764;48.472;8.166;2023-06-26T14:46:11;8.88;;;4.97;;
54875;SDS011;40764;48.472;8.166;2023-06-26T14:52:12;8.40;;;4.95;;
54875;SDS011;40764;48.472;8.166;2023-06-26T14:58:12;17.50;;;6.57;;
54875;SDS011;40764;48.472;8.166;2023-06-26T15:04:13;8.80;;;5.07;;
54875;SDS011;40764;48.472;8.166;2023-06-26T15:10:13;17.07;;;6.13;;
54875;SDS011;40764;48.472;8.166;2023-06-26T15:22:17;11.32;;;6.30;;
54875;SDS011;40764;48.472;8.166;2023-06-26T15:28:17;13.48;;;6.63;;
54875;SDS011;40764;48.472;8.166;2023-06-26T15:34:18;13.88;;;6.35;;
54875;SDS011;40764;48.472;8.166;2023-06-26T15:40:18;13.70;;;6.90;;
54875;SDS011;40764;48.472;8.166;2023-06-26T15:52:19;11.88;;;5.05;;
54875;SDS011;40764;48.472;8.166;2023-06-26T16:04:20;8.00;;;2.97;;
54875;SDS011;40764;48.472;8.166;2023-06-26T16:10:22;5.50;;;2.67;;
54875;SDS011;40764;48.472;8.166;2023-06-26T16:16:22;5.43;;;2.23;;
54875;SDS011;40764;48.472;8.166;2023-06-26T16:22:22;6.72;;;2.60;;
54875;SDS011;40764;48.472;8.166;2023-06-26T16:28:23;9.60;;;1.97;;
54875;SDS011;40764;48.472;8.166;2023-06-26T16:34:24;6.63;;;2.40;;
54875;SDS011;40764;48.472;8.166;2023-06-26T16:46:25;4.68;;;2.55;;
54875;SDS011;40764;48.472;8.166;2023-06-26T16:52:25;7.55;;;1.73;;
54875;SDS011;40764;48.472;8.166;2023-06-26T16:58:25;7.88;;;2.20;;
54875;SDS011;40764;48.472;8.166;2023-06-26T17:04:26;5.30;;;1.85;;
54875;SDS011;40764;48.472;8.166;2023-06-26T17:10:28;8.68;;;1.90;;
54875;SDS011;40764;48.472;8.166;2023-06-26T17:16:28;6.30;;;1.85;;
54875;SDS011;40764;48.472;8.166;2023-06-26T17:22:28;12.33;;;1.70;;
54875;SDS011;40764;48.472;8.166;2023-06-26T17:28:29;7.80;;;2.07;;
54875;SDS011;40764;48.472;8.166;2023-06-26T17:34:31;8.43;;;1.95;;
54875;SDS011;40764;48.472;8.166;2023-06-26T17:40:31;6.75;;;1.70;;
54875;SDS011;40764;48.472;8.166;2023-06-26T17:46:31;4.88;;;1.60;;
54875;SDS011;40764;48.472;8.166;2023-06-26T17:52:32;4.83;;;1.60;;
54875;SDS011;40764;48.472;8.166;2023-06-26T17:58:32;4.57;;;1.55;;
54875;SDS011;40764;48.472;8.166;2023-06-26T18:04:32;5.85;;;1.60;;
54875;SDS011;40764;48.472;8.166;2023-06-26T18:10:33;17.17;;;2.17;;
54875;SDS011;40764;48.472;8.166;2023-06-26T18:16:33;5.22;;;1.52;;
54875;SDS011;40764;48.472;8.166;2023-06-26T18:22:33;7.47;;;1.52;;
54875;SDS011;40764;48.472;8.166;2023-06-26T18:28:34;8.65;;;1.23;;
54875;SDS011;40764;48.472;8.166;2023-06-26T18:34:34;11.68;;;1.73;;
54875;SDS011;40764;48.472;8.166;2023-06-26T18:40:34;4.57;;;1.60;;
54875;SDS011;40764;48.472;8.166;2023-06-26T18:46:35;5.23;;;1.90;;
54875;SDS011;40764;48.472;8.166;2023-06-26T18:52:35;7.23;;;2.17;;
54875;SDS011;40764;48.472;8.166;2023-06-26T18:58:36;21.37;;;2.03;;
54875;SDS011;40764;48.472;8.166;2023-06-26T19:04:36;11.57;;;1.48;;
54875;SDS011;40764;48.472;8.166;2023-06-26T19:10:37;3.65;;;1.52;;
54875;SDS011;40764;48.472;8.166;2023-06-26T19:16:38;4.22;;;1.40;;
54875;SDS011;40764;48.472;8.166;2023-06-26T19:22:38;7.17;;;1.53;;
54875;SDS011;40764;48.472;8.166;2023-06-26T19:28:40;7.10;;;1.60;;
54875;SDS011;40764;48.472;8.166;2023-06-26T19:34:40;7.70;;;1.60;;
54875;SDS011;40764;48.472;8.166;2023-06-26T19:40:40;7.03;;;2.25;;
54875;SDS011;40764;48.472;8.166;2023-06-26T19:46:41;7.38;;;1.77;;
54875;SDS011;40764;48.472;8.166;2023-06-26T19:52:41;3.63;;;1.63;;
54875;SDS011;40764;48.472;8.166;2023-06-26T19:58:41;6.40;;;1.50;;
54875;SDS011;40764;48.472;8.166;2023-06-26T20:04:41;7.75;;;1.85;;
54875;SDS011;40764;48.472;8.166;2023-06-26T20:10:42;4.70;;;1.43;;
54875;SDS011;40764;48.472;8.166;2023-06-26T20:16:43;7.83;;;2.03;;
54875;SDS011;40764;48.472;8.166;2023-06-26T20:22:43;9.80;;;3.53;;
54875;SDS011;40764;48.472;8.166;2023-06-26T20:28:44;4.70;;;2.22;;
54875;SDS011;40764;48.472;8.166;2023-06-26T20:34:44;5.33;;;2.00;;
54875;SDS011;40764;48.472;8.166;2023-06-26T20:40:44;6.80;;;1.70;;
54875;SDS011;40764;48.472;8.166;2023-06-26T20:46:45;9.33;;;2.13;;
54875;SDS011;40764;48.472;8.166;2023-06-26T20:52:55;10.57;;;1.83;;
54875;SDS011;40764;48.472;8.166;2023-06-26T20:58:56;8.52;;;2.20;;
54875;SDS011;40764;48.472;8.166;2023-06-26T21:04:56;9.27;;;1.70;;
54875;SDS011;40764;48.472;8.166;2023-06-26T21:10:56;7.43;;;2.05;;
54875;SDS011;40764;48.472;8.166;2023-06-26T21:16:57;3.63;;;2.10;;
54875;SDS011;40764;48.472;8.166;2023-06-26T21:22:57;10.60;;;1.93;;
54875;SDS011;40764;48.472;8.166;2023-06-26T21:28:57;5.50;;;1.98;;
54875;SDS011;40764;48.472;8.166;2023-06-26T21:34:58;8.40;;;2.40;;
54875;SDS011;40764;48.472;8.166;2023-06-26T21:41:00;10.02;;;1.92;;
54875;SDS011;40764;48.472;8.166;2023-06-26T21:47:00;5.53;;;2.05;;
54875;SDS011;40764;48.472;8.166;2023-06-26T21:53:01;6.00;;;1.75;;
54875;SDS011;40764;48.472;8.166;2023-06-26T21:59:02;4.47;;;2.20;;
54875;SDS011;40764;48.472;8.166;2023-06-26T22:05:03;4.33;;;1.87;;
54875;SDS011;40764;48.472;8.166;2023-06-26T22:11:03;9.20;;;2.43;;
54875;SDS011;40764;48.472;8.166;2023-06-26T22:17:04;11.68;;;2.95;;
54875;SDS011;40764;48.472;8.166;2023-06-26T22:23:04;6.03;;;2.23;;
54875;SDS011;40764;48.472;8.166;2023-06-26T22:29:06;14.57;;;2.17;;
54875;SDS011;40764;48.472;8.166;2023-06-26T22:35:07;9.68;;;2.35;;
54875;SDS011;40764;48.472;8.166;2023-06-26T22:41:08;10.53;;;2.23;;
54875;SDS011;40764;48.472;8.166;2023-06-26T22:47:08;8.07;;;2.10;;
54875;SDS011;40764;48.472;8.166;2023-06-26T22:53:09;7.03;;;2.30;;
54875;SDS011;40764;48.472;8.166;2023-06-26T22:59:09;7.13;;;2.38;;
54875;SDS011;40764;48.472;8.166;2023-06-26T23:05:09;9.33;;;2.70;;
54875;SDS011;40764;48.472;8.166;2023-06-26T23:11:10;9.88;;;3.40;;
54875;SDS011;40764;48.472;8.166;2023-06-26T23:17:10;8.32;;;2.25;;
54875;SDS011;40764;48.472;8.166;2023-06-26T23:23:11;8.83;;;2.70;;
54875;SDS011;40764;48.472;8.166;2023-06-26T23:29:15;7.97;;;2.38;;
54875;SDS011;40764;48.472;8.166;2023-06-26T23:35:17;7.32;;;1.92;;
54875;SDS011;40764;48.472;8.166;2023-06-26T23:41:18;7.03;;;2.80;;
54875;SDS011;40764;48.472;8.166;2023-06-26T23:47:18;9.82;;;3.30;;
54875;SDS011;40764;48.472;8.166;2023-06-26T23:53:18;11.23;;;2.77;;
54875;SDS011;40764;48.472;8.166;2023-06-26T23:59:19;9.00;;;2.45;;
